Time;durP1;ratioP1;P1;durP2;ratioP2;P2;SDS_P1;SDS_P2;PMS_P1;PMS_P2;Temp;Humidity;BMP_temperature;BMP_pressure;BME280_temperature;BME280_humidity;BME280_pressure;Samples;Min_cycle;Max_cycle;Signal;HPM_P1;HPM_P2
2021/05/26 21:17:42;;;;;;;;;;;;;;;19.03;52.53;100752.44;5088969;22;19916;-81
2021/05/26 21:20:27;;;;;;;;;;;;;;;19.06;52.17;100757.19;5105165;28;19920;-80
2021/05/26 21:23:11;;;;;;;;;;;;;;;18.83;52.90;100759.22;5106454;28;20321;-82
2021/05/26 21:25:57;;;;;;;;;;;;;;;18.83;53.96;100756.47;5118675;28;19915;-80
2021/05/26 21:28:41;;;;;;;;;;;;;;;18.85;54.08;100756.88;5097993;28;19916;-81
2021/05/26 21:31:26;;;;;;;;;;;;;;;18.84;53.85;100763.56;5101902;28;20385;-80
2021/05/26 21:34:10;;;;;;;;;;;;;;;18.71;53.18;100763.75;5110568;28;19915;-80
2021/05/26 21:37:14;;;;;;;;;;;;;;;18.61;55.19;100761.63;5102164;28;19912;-83
2021/05/26 21:40:18;;;;;;;;;;;;;;;18.66;54.20;100766.81;5105841;28;19916;-82
2021/05/26 21:43:21;;;;;;;;;;;;;;;18.68;54.37;100767.25;5111377;28;20373;-82
2021/05/26 21:46:05;;;;;;;;;;;;;;;18.65;54.29;100762.47;5095147;28;19916;-80
2021/05/26 21:49:09;;;;;;;;;;;;;;;18.50;55.47;100763.34;5105000;28;19911;-82
2021/05/26 21:51:53;;;;;;;;;;;;;;;18.58;55.63;100767.88;5113604;28;19911;-79
2021/05/26 21:54:38;;;;;;;;;;;;;;;18.65;54.80;100762.47;5108890;28;19912;-82
2021/05/26 21:57:22;;;;;;;;;;;;;;;18.49;55.46;100763.75;5118507;27;19912;-81
2021/05/26 22:00:27;;;;;;;;;;;;;;;18.54;55.38;100769.75;5110691;28;19916;-85
2021/05/26 22:03:30;;;;;;;;;;;;;;;18.48;55.17;100762.94;5106478;27;19912;-79
2021/05/26 22:06:15;;;;;;;;;;;;;;;18.45;55.02;100763.66;5103956;28;19912;-79
2021/05/26 22:09:00;;;;;;;;;;;;;;;18.52;55.04;100760.25;5106246;28;19920;-79
2021/05/26 22:11:45;;;;;;;;;;;;;;;18.23;56.25;100773.53;5103789;28;19915;-80
2021/05/26 22:14:29;;;;;;;;;;;;;;;18.41;55.38;100767.53;5105664;28;19912;-80
2021/05/26 22:17:14;;;;;;;;;;;;;;;18.39;55.09;100767.88;5101650;28;20373;-81
2021/05/26 22:19:58;;;;;;;;;;;;;;;18.48;54.79;100768.47;5097550;28;19919;-82
2021/05/26 22:22:43;;;;;;;;;;;;;;;18.39;54.98;100756.88;5113433;28;19912;-83
2021/05/26 22:25:30;;;;;;;;;;;;;;;18.55;54.36;100768.59;5079461;28;19912;-83
2021/05/26 22:28:14;;;;;;;;;;;;;;;18.45;55.13;100757.34;5092510;28;19912;-84
2021/05/26 22:30:59;;;;;;;;;;;;;;;18.49;54.87;100759.00;5117981;28;19912;-83
2021/05/26 22:33:43;;;;;;;;;;;;;;;18.44;55.25;100755.78;5115611;28;19911;-84
2021/05/26 22:36:28;;;;;;;;;;;;;;;18.32;55.09;100754.00;5119273;28;19912;-81
2021/05/26 22:39:12;;;;;;;;;;;;;;;18.29;55.01;100757.47;5107757;28;19975;-81
2021/05/26 22:42:15;;;;;;;;;;;;;;;18.25;55.16;100753.88;5103752;28;19916;-80
2021/05/26 22:45:01;;;;;;;;;;;;;;;18.26;54.75;100758.22;5104642;28;19912;-81
2021/05/26 22:47:46;;;;;;;;;;;;;;;18.11;55.21;100754.41;5109954;28;19919;-82
2021/05/26 22:53:37;;;;;;;;;;;;;;;18.36;55.13;100741.09;5113482;28;19911;-83
2021/05/26 22:56:21;;;;;;;;;;;;;;;18.51;55.16;100739.38;5116236;28;19912;-83
2021/05/26 22:59:06;;;;;;;;;;;;;;;18.40;55.28;100739.19;5113560;28;19926;-81
2021/05/26 23:01:51;;;;;;;;;;;;;;;18.29;55.70;100739.00;5117190;28;19920;-83
2021/05/26 23:04:36;;;;;;;;;;;;;;;18.10;56.28;100746.50;5086172;28;19919;-80
2021/05/26 23:11:15;;;;;;;;;;;;;;;18.01;56.68;100741.25;5114269;28;20361;-81
2021/05/26 23:14:00;;;;;;;;;;;;;;;17.97;57.29;100750.59;5112223;28;19911;-81
2021/05/26 23:16:44;;;;;;;;;;;;;;;17.88;57.62;100746.09;5116053;28;19911;-79
2021/05/26 23:19:29;;;;;;;;;;;;;;;17.82;57.68;100742.06;5113761;28;19915;-79
2021/05/26 23:22:14;;;;;;;;;;;;;;;17.82;57.86;100747.56;5112434;28;19919;-81
2021/05/26 23:24:59;;;;;;;;;;;;;;;17.86;57.74;100736.63;5115991;28;19912;-79
2021/05/26 23:27:44;;;;;;;;;;;;;;;17.90;57.76;100737.50;5114748;28;20293;-80
2021/05/26 23:30:28;;;;;;;;;;;;;;;17.85;57.82;100741.34;5100871;28;19911;-80
2021/05/26 23:33:14;;;;;;;;;;;;;;;17.85;57.97;100738.59;5116892;28;19912;-80
2021/05/26 23:35:58;;;;;;;;;;;;;;;17.69;58.45;100735.09;5114203;28;19912;-80
2021/05/26 23:38:44;;;;;;;;;;;;;;;17.75;58.69;100730.91;5107370;28;20290;-81
2021/05/26 23:41:29;;;;;;;;;;;;;;;18.12;57.57;100733.19;5100425;28;20370;-80
2021/05/26 23:44:13;;;;;;;;;;;;;;;18.41;56.71;100732.53;5114645;28;19911;-82
2021/05/26 23:46:57;;;;;;;;;;;;;;;18.62;56.18;100734.88;5113257;28;19911;-83
2021/05/26 23:49:42;;;;;;;;;;;;;;;18.70;55.73;100725.53;5117405;28;19915;-82
2021/05/26 23:52:26;;;;;;;;;;;;;;;18.85;55.30;100737.56;5116143;28;19911;-78
2021/05/26 23:55:11;;;;;;;;;;;;;;;18.95;54.91;100725.91;5113478;28;19911;-82
2021/05/26 23:57:56;;;;;;;;;;;;;;;19.03;54.66;100733.16;5118125;28;19911;-83
